Time;durP1;ratioP1;P1;durP2;ratioP2;P2;SDS_P1;SDS_P2;PMS_P1;PMS_P2;Temp;Humidity;BMP_temperature;BMP_pressure;BME280_temperature;BME280_humidity;BME280_pressure;Samples;Min_cycle;Max_cycle;Signal;HPM_P1;HPM_P2
2023/03/17 00:00:41;;;;;;;5.85;2.97;;;;;;;6.47;100.00;100805.00;5114110;28;20032;-70
2023/03/17 00:03:15;;;;;;;3.95;2.67;;;;;;;6.46;100.00;100796.19;5114458;28;20478;-70
2023/03/17 00:05:41;;;;;;;5.45;2.90;;;;;;;6.43;100.00;100785.03;5113652;28;20035;-70
2023/03/17 00:08:14;;;;;;;5.60;2.92;;;;;;;6.39;100.00;100778.28;5114188;28;20036;-70
2023/03/17 00:10:39;;;;;;;5.10;2.92;;;;;;;6.32;100.00;100781.38;5113652;28;20077;-70
2023/03/17 00:13:05;;;;;;;6.68;2.70;;;;;;;6.29;100.00;100778.97;5114026;28;20028;-70
2023/03/17 00:15:31;;;;;;;6.15;2.90;;;;;;;6.24;100.00;100782.88;5113684;28;20051;-70
2023/03/17 00:17:57;;;;;;;4.10;2.70;;;;;;;6.20;100.00;100773.53;5114151;28;20072;-70
2023/03/17 00:20:28;;;;;;;9.35;2.60;;;;;;;6.17;100.00;100774.59;5114105;28;20035;-70
2023/03/17 00:23:00;;;;;;;4.20;2.80;;;;;;;6.14;100.00;100767.72;5112325;28;20391;-70
2023/03/17 00:25:31;;;;;;;3.80;2.70;;;;;;;6.09;100.00;100782.22;5113623;28;20401;-70
2023/03/17 00:27:58;;;;;;;4.57;2.80;;;;;;;6.05;100.00;100778.13;5114066;28;20044;-70
2023/03/17 00:30:24;;;;;;;4.30;2.65;;;;;;;6.04;100.00;100776.44;5113918;28;20047;-70
2023/03/17 00:32:53;;;;;;;4.53;2.80;;;;;;;6.01;100.00;100785.41;5113465;28;20032;-70
2023/03/17 00:35:24;;;;;;;5.13;2.78;;;;;;;5.99;100.00;100793.44;5113804;28;20034;-70
2023/03/17 00:37:53;;;;;;;6.05;3.13;;;;;;;6.03;100.00;100803.78;5113724;28;20038;-70
2023/03/17 00:40:22;;;;;;;6.78;2.60;;;;;;;6.03;100.00;100798.50;5113746;28;20031;-70
2023/03/17 00:42:49;;;;;;;4.63;2.35;;;;;;;6.06;100.00;100783.28;5112194;28;20024;-70
2023/03/17 00:45:15;;;;;;;5.00;3.28;;;;;;;6.13;100.00;100763.38;5113289;28;20031;-70
2023/03/17 00:47:41;;;;;;;3.65;2.50;;;;;;;6.15;100.00;100760.63;5113059;28;20151;-70
2023/03/17 00:50:14;;;;;;;3.95;2.38;;;;;;;6.16;100.00;100752.59;5113391;28;20373;-70
2023/03/17 00:52:39;;;;;;;5.32;2.88;;;;;;;6.15;100.00;100764.13;5112968;28;20390;-70
2023/03/17 00:55:07;;;;;;;5.90;2.90;;;;;;;6.10;100.00;100770.69;5113076;28;20035;-70
2023/03/17 00:57:34;;;;;;;4.72;2.72;;;;;;;6.08;100.00;100775.25;5113242;28;20119;-70
2023/03/17 01:00:00;;;;;;;4.10;2.83;;;;;;;6.07;100.00;100771.75;5112963;28;20067;-70
2023/03/17 01:02:26;;;;;;;5.47;2.90;;;;;;;6.04;100.00;100771.97;5111813;28;20498;-70
2023/03/17 01:04:52;;;;;;;6.10;3.17;;;;;;;6.00;100.00;100781.06;5112775;28;20051;-70
2023/03/17 01:07:18;;;;;;;5.88;2.67;;;;;;;5.96;100.00;100772.50;5113153;28;20428;-70
2023/03/17 01:09:44;;;;;;;5.50;3.15;;;;;;;5.98;100.00;100772.44;5112805;28;20032;-70
2023/03/17 01:12:12;;;;;;;6.03;2.95;;;;;;;5.98;100.00;100775.91;5113088;28;20036;-70
2023/03/17 01:14:39;;;;;;;8.15;2.85;;;;;;;6.05;100.00;100764.91;5112757;28;20050;-70
2023/03/17 01:17:14;;;;;;;4.35;2.72;;;;;;;6.11;100.00;100761.81;5113130;28;20121;-70
2023/03/17 01:19:39;;;;;;;4.70;3.10;;;;;;;6.14;100.00;100766.88;5112550;28;20034;-71
2023/03/17 01:22:05;;;;;;;4.22;2.60;;;;;;;6.14;100.00;100765.06;5113056;28;20110;-70
2023/03/17 01:24:30;;;;;;;6.88;3.10;;;;;;;6.15;100.00;100758.84;5112602;28;20032;-70
2023/03/17 01:26:56;;;;;;;4.47;2.80;;;;;;;6.16;100.00;100749.94;5112005;28;20123;-70
2023/03/17 01:29:21;;;;;;;4.32;2.63;;;;;;;6.20;100.00;100747.94;5113178;28;20115;-70
2023/03/17 01:31:47;;;;;;;3.70;2.78;;;;;;;6.23;100.00;100744.22;5112473;28;20073;-70
2023/03/17 01:34:12;;;;;;;7.28;2.72;;;;;;;6.23;100.00;100749.53;5112792;28;20395;-70
2023/03/17 01:36:37;;;;;;;4.28;2.60;;;;;;;6.23;100.00;100742.44;5112817;28;20399;-70
2023/03/17 01:39:04;;;;;;;7.22;2.58;;;;;;;6.23;100.00;100731.84;5112428;28;20089;-70
2023/03/17 01:41:33;;;;;;;8.45;2.78;;;;;;;6.25;100.00;100739.66;5111497;28;20039;-70
2023/03/17 01:43:58;;;;;;;7.10;2.90;;;;;;;6.26;100.00;100739.56;5112342;28;20042;-71
2023/03/17 01:46:32;;;;;;;4.38;2.75;;;;;;;6.29;100.00;100722.63;5112680;28;20027;-70
2023/03/17 01:49:03;;;;;;;3.17;2.53;;;;;;;6.33;100.00;100735.50;5112302;28;20035;-70
2023/03/17 01:51:47;;;;;;;5.38;2.80;;;;;;;6.37;100.00;100730.81;5112612;28;20463;-71
2023/03/17 01:54:29;;;;;;;3.65;2.78;;;;;;;6.39;100.00;100730.69;5115753;28;20074;-70
2023/03/17 01:57:00;;;;;;;6.20;2.67;;;;;;;6.40;100.00;100727.13;5116456;28;20023;-70
2023/03/17 01:59:33;;;;;;;5.25;2.83;;;;;;;6.45;100.00;100724.97;5116770;28;20032;-70
2023/03/17 02:02:09;;;;;;;5.40;2.88;;;;;;;6.48;100.00;100717.66;5116363;28;20028;-70
2023/03/17 02:04:35;;;;;;;5.70;2.60;;;;;;;6.55;100.00;100728.59;5116840;28;20031;-70
2023/03/17 02:07:03;;;;;;;5.13;2.50;;;;;;;6.60;100.00;100729.09;5115991;28;20030;-70
2023/03/17 02:09:30;;;;;;;4.82;2.78;;;;;;;6.63;100.00;100728.03;5116579;28;20073;-70
2023/03/17 02:11:59;;;;;;;5.25;2.72;;;;;;;6.68;100.00;100725.88;5116033;28;20068;-70
2023/03/17 02:14:25;;;;;;;4.55;2.88;;;;;;;6.72;100.00;100719.41;5116453;28;20106;-69
2023/03/17 02:16:50;;;;;;;4.03;2.55;;;;;;;6.74;100.00;100716.63;5115751;28;20559;-70
2023/03/17 02:19:16;;;;;;;6.93;2.63;;;;;;;6.74;100.00;100712.19;5116401;28;20518;-69
2023/03/17 02:21:44;;;;;;;10.63;2.88;;;;;;;6.73;100.00;100713.13;5116361;28;20063;-69
2023/03/17 02:24:25;;;;;;;5.05;2.90;;;;;;;6.73;100.00;100707.84;5115877;28;20382;-69
2023/03/17 02:26:53;;;;;;;5.10;2.50;;;;;;;6.74;100.00;100714.00;5115479;28;20456;-70
2023/03/17 02:29:21;;;;;;;4.72;2.38;;;;;;;6.74;100.00;100717.47;5116301;28;20031;-69
2023/03/17 02:31:47;;;;;;;4.70;2.42;;;;;;;6.76;100.00;100714.72;5116269;28;20035;-69
2023/03/17 02:34:13;;;;;;;2.85;2.47;;;;;;;6.78;100.00;100720.75;5115965;28;20153;-70
2023/03/17 02:36:38;;;;;;;5.50;2.83;;;;;;;6.79;100.00;100722.41;5116131;28;20051;-70
2023/03/17 02:39:04;;;;;;;4.32;2.38;;;;;;;6.81;100.00;100715.22;5115279;28;20364;-70
2023/03/17 02:41:29;;;;;;;4.63;2.72;;;;;;;6.80;100.00;100713.53;5114383;28;20114;-69
2023/03/17 02:43:55;;;;;;;4.78;2.85;;;;;;;6.81;100.00;100710.75;5115599;28;20118;-71
2023/03/17 02:46:21;;;;;;;3.42;2.50;;;;;;;6.84;100.00;100707.03;5115466;28;20032;-69
2023/03/17 02:48:47;;;;;;;5.38;2.80;;;;;;;6.86;100.00;100718.34;5115912;28;20084;-69
2023/03/17 02:51:13;;;;;;;3.83;2.63;;;;;;;6.85;100.00;100712.22;5114027;28;20458;-69
2023/03/17 02:53:39;;;;;;;4.32;2.60;;;;;;;6.85;100.00;100709.56;5115829;28;20056;-69
2023/03/17 02:56:04;;;;;;;4.40;2.60;;;;;;;6.88;100.00;100711.13;5115232;28;20387;-70
2023/03/17 02:58:30;;;;;;;4.30;2.72;;;;;;;6.85;100.00;100703.41;5115610;28;20032;-69
2023/03/17 03:00:55;;;;;;;4.70;2.58;;;;;;;6.82;100.00;100711.59;5115219;28;20388;-70
2023/03/17 03:03:21;;;;;;;2.80;2.53;;;;;;;6.81;100.00;100708.13;5116035;28;20117;-70
2023/03/17 03:05:46;;;;;;;4.00;2.53;;;;;;;6.82;100.00;100716.88;5114082;28;20532;-69
2023/03/17 03:08:12;;;;;;;3.45;2.58;;;;;;;6.81;100.00;100717.88;5115107;28;20168;-69
2023/03/17 03:10:37;;;;;;;5.38;2.90;;;;;;;6.78;100.00;100716.28;5115495;28;20202;-70
2023/03/17 03:13:03;;;;;;;9.65;2.60;;;;;;;6.75;100.00;100711.22;5114971;28;20039;-70
2023/03/17 03:15:28;;;;;;;3.03;2.30;;;;;;;6.73;100.00;100720.22;5115312;28;20054;-69
2023/03/17 03:17:54;;;;;;;6.93;2.70;;;;;;;6.76;100.00;100727.94;5115003;28;20080;-71
2023/03/17 03:20:19;;;;;;;6.55;2.60;;;;;;;6.77;100.00;100729.63;5115214;28;20024;-70
2023/03/17 03:22:45;;;;;;;3.55;2.35;;;;;;;6.76;100.00;100726.13;5115133;28;20036;-70
2023/03/17 03:25:10;;;;;;;4.38;2.40;;;;;;;6.76;100.00;100725.28;5114797;28;20035;-70
2023/03/17 03:27:36;;;;;;;5.20;2.72;;;;;;;6.81;100.00;100723.16;5115007;28;20466;-69
2023/03/17 03:30:02;;;;;;;4.65;3.00;;;;;;;6.89;100.00;100708.34;5114706;28;20036;-69
2023/03/17 03:32:28;;;;;;;5.05;2.35;;;;;;;6.92;100.00;100714.38;5114877;28;20032;-69
2023/03/17 03:34:53;;;;;;;8.50;2.80;;;;;;;6.92;100.00;100723.16;5115071;28;20032;-70
2023/03/17 03:37:19;;;;;;;6.20;2.63;;;;;;;6.93;100.00;100732.78;5114529;28;20038;-70
2023/03/17 03:39:44;;;;;;;5.32;2.67;;;;;;;6.94;100.00;100734.47;5114805;28;20034;-70
2023/03/17 03:42:10;;;;;;;4.05;2.55;;;;;;;6.95;100.00;100736.13;5114465;28;20039;-70
2023/03/17 03:44:35;;;;;;;2.90;2.50;;;;;;;6.93;100.00;100740.72;5115014;28;20036;-70
2023/03/17 03:47:01;;;;;;;3.70;2.58;;;;;;;6.92;100.00;100731.09;5113911;28;20032;-70
2023/03/17 03:49:27;;;;;;;4.63;2.40;;;;;;;6.91;100.00;100737.31;5113525;28;20088;-70
2023/03/17 03:51:52;;;;;;;3.72;2.47;;;;;;;6.87;100.00;100747.31;5113424;28;20028;-70
2023/03/17 03:54:17;;;;;;;2.58;2.10;;;;;;;6.87;100.00;100742.03;5114130;28;20204;-70
2023/03/17 03:56:43;;;;;;;3.28;2.30;;;;;;;6.89;100.00;100747.19;5113333;28;20031;-70
2023/03/17 03:59:08;;;;;;;5.63;2.60;;;;;;;6.88;100.00;100748.16;5114127;28;20036;-70
2023/03/17 04:01:34;;;;;;;4.70;2.92;;;;;;;6.86;100.00;100758.84;5114487;28;20040;-70
2023/03/17 04:04:00;;;;;;;5.30;2.67;;;;;;;6.82;100.00;100759.19;5114104;28;20540;-71
2023/03/17 04:06:26;;;;;;;4.10;2.58;;;;;;;6.79;100.00;100743.56;5114349;28;20148;-70
2023/03/17 04:08:51;;;;;;;6.00;2.60;;;;;;;6.79;100.00;100747.06;5114245;28;20469;-71
2023/03/17 04:11:17;;;;;;;3.72;2.72;;;;;;;6.85;100.00;100738.66;5113924;28;20031;-70
2023/03/17 04:13:42;;;;;;;6.25;2.55;;;;;;;6.87;100.00;100731.44;5114211;28;20040;-70
2023/03/17 04:16:08;;;;;;;3.67;2.55;;;;;;;6.89;100.00;100732.16;5113498;28;20482;-70
2023/03/17 04:18:34;;;;;;;3.95;2.70;;;;;;;6.87;100.00;100731.44;5114038;28;20023;-69
2023/03/17 04:21:00;;;;;;;5.07;2.58;;;;;;;6.86;100.00;100740.31;5112938;28;20032;-69
2023/03/17 04:23:26;;;;;;;5.57;2.72;;;;;;;6.91;100.00;100744.44;5113694;28;20055;-69
2023/03/17 04:25:52;;;;;;;8.98;2.95;;;;;;;6.89;100.00;100736.63;5112280;28;20028;-69
2023/03/17 04:28:18;;;;;;;6.05;2.85;;;;;;;6.88;100.00;100733.13;5113553;28;20100;-69
2023/03/17 04:30:43;;;;;;;6.95;2.83;;;;;;;6.87;100.00;100746.47;5113870;28;20032;-69
2023/03/17 04:33:09;;;;;;;4.55;2.55;;;;;;;6.84;100.00;100739.63;5112048;28;20417;-72
2023/03/17 04:35:35;;;;;;;5.68;2.78;;;;;;;6.82;100.00;100738.03;5113735;28;20097;-69
2023/03/17 04:38:00;;;;;;;4.13;2.78;;;;;;;6.80;100.00;100739.97;5114164;28;20027;-69
2023/03/17 04:40:26;;;;;;;6.32;2.38;;;;;;;6.77;100.00;100738.38;5113258;28;20467;-69
2023/03/17 04:42:51;;;;;;;2.95;2.55;;;;;;;6.78;100.00;100755.94;5113682;28;20089;-71
2023/03/17 04:45:17;;;;;;;4.85;2.78;;;;;;;6.80;100.00;100732.03;5111474;28;20503;-69
2023/03/17 04:47:44;;;;;;;6.15;2.60;;;;;;;6.82;100.00;100730.97;5113690;28;20045;-70
2023/03/17 04:50:10;;;;;;;4.15;2.85;;;;;;;6.84;100.00;100733.50;5113061;28;20540;-70
2023/03/17 04:52:36;;;;;;;4.63;2.78;;;;;;;6.85;100.00;100727.22;5113478;28;20023;-70
2023/03/17 04:55:02;;;;;;;7.45;2.72;;;;;;;6.87;100.00;100749.13;5113048;28;20032;-70
2023/03/17 04:57:27;;;;;;;4.65;2.80;;;;;;;6.86;100.00;100747.44;5112912;28;20042;-70
2023/03/17 04:59:53;;;;;;;6.85;2.50;;;;;;;6.89;100.00;100748.03;5113280;28;20039;-70
2023/03/17 05:02:18;;;;;;;7.10;2.95;;;;;;;6.90;100.00;100714.50;5112998;28;20062;-70
2023/03/17 05:04:44;;;;;;;7.90;2.88;;;;;;;6.92;100.00;100695.88;5112780;28;20114;-70
2023/03/17 05:07:11;;;;;;;4.57;3.10;;;;;;;6.90;100.00;100719.78;5112811;28;20085;-70
2023/03/17 05:09:36;;;;;;;5.13;2.78;;;;;;;6.87;100.00;100726.16;5113168;28;20081;-70
2023/03/17 05:12:02;;;;;;;4.88;2.70;;;;;;;6.81;100.00;100723.97;5111602;28;20426;-70
2023/03/17 05:14:27;;;;;;;4.95;2.88;;;;;;;6.78;100.00;100718.09;5112789;28;20155;-70
2023/03/17 05:16:52;;;;;;;3.60;2.42;;;;;;;6.69;100.00;100724.94;5112855;28;20067;-70
2023/03/17 05:19:18;;;;;;;6.32;3.08;;;;;;;6.63;100.00;100691.03;5112882;28;20035;-71
2023/03/17 05:21:43;;;;;;;3.97;2.92;;;;;;;6.56;100.00;100672.13;5113043;28;20039;-70
2023/03/17 05:24:09;;;;;;;4.78;3.55;;;;;;;6.47;100.00;100664.91;5112728;28;20031;-70
2023/03/17 05:26:34;;;;;;;3.78;3.10;;;;;;;6.37;100.00;100670.03;5112253;28;20099;-70
2023/03/17 05:29:00;;;;;;;5.25;2.85;;;;;;;6.25;100.00;100679.72;5112018;28;20407;-70
2023/03/17 05:31:26;;;;;;;5.25;3.10;;;;;;;6.18;100.00;100713.69;5112378;28;20112;-71
2023/03/17 05:33:51;;;;;;;5.22;2.83;;;;;;;6.10;100.00;100725.78;5112878;28;20043;-70
2023/03/17 05:36:17;;;;;;;4.78;2.88;;;;;;;6.09;100.00;100734.66;5112173;28;20502;-71
2023/03/17 05:38:43;;;;;;;10.10;3.20;;;;;;;6.10;100.00;100734.53;5112504;28;20035;-70
2023/03/17 05:41:09;;;;;;;3.65;2.75;;;;;;;6.10;100.00;100734.53;5112587;28;20387;-70
2023/03/17 05:43:35;;;;;;;5.35;2.97;;;;;;;6.12;100.00;100727.38;5112298;28;20027;-71
2023/03/17 05:46:01;;;;;;;4.13;2.60;;;;;;;6.13;100.00;100730.84;5112778;28;20035;-70
2023/03/17 05:48:26;;;;;;;8.18;3.05;;;;;;;6.14;100.00;100733.38;5112361;28;20032;-70
2023/03/17 05:50:52;;;;;;;5.32;2.63;;;;;;;6.18;100.00;100736.66;5112659;28;20030;-70
2023/03/17 05:53:17;;;;;;;5.65;3.00;;;;;;;6.16;100.00;100722.69;5112298;28;20031;-71
2023/03/17 05:55:43;;;;;;;8.30;3.08;;;;;;;6.17;100.00;100711.19;5111501;28;20388;-70
2023/03/17 05:58:08;;;;;;;11.90;3.75;;;;;;;6.17;100.00;100692.69;5112810;28;20387;-70
2023/03/17 06:00:35;;;;;;;4.45;2.97;;;;;;;6.19;100.00;100698.69;5112277;28;20239;-70
2023/03/17 06:03:01;;;;;;;7.95;3.30;;;;;;;6.19;100.00;100690.75;5112359;28;20400;-70
2023/03/17 06:05:26;;;;;;;5.38;3.10;;;;;;;6.20;100.00;100689.81;5112218;28;20023;-70
2023/03/17 06:07:52;;;;;;;5.63;2.88;;;;;;;6.18;100.00;100691.72;5112554;28;20460;-70
2023/03/17 06:10:17;;;;;;;4.95;3.10;;;;;;;6.17;100.00;100697.97;5112247;28;20532;-71
2023/03/17 06:12:43;;;;;;;9.57;2.85;;;;;;;6.14;100.00;100701.66;5112585;28;20067;-71
2023/03/17 06:15:08;;;;;;;4.32;3.05;;;;;;;6.12;100.00;100710.66;5112545;28;20480;-71
2023/03/17 06:17:34;;;;;;;3.83;2.90;;;;;;;6.10;100.00;100723.97;5112174;28;20081;-70
2023/03/17 06:20:00;;;;;;;7.53;2.90;;;;;;;6.09;100.00;100729.38;5112436;28;20106;-70
2023/03/17 06:22:26;;;;;;;7.03;2.95;;;;;;;6.07;100.00;100724.22;5112040;28;20120;-71
2023/03/17 06:24:52;;;;;;;11.20;3.90;;;;;;;6.06;100.00;100725.19;5112354;28;20061;-69
2023/03/17 06:27:18;;;;;;;6.68;3.22;;;;;;;6.06;100.00;100719.91;5112203;28;20052;-70
2023/03/17 06:29:43;;;;;;;3.92;2.90;;;;;;;6.10;100.00;100725.78;5112615;28;20046;-70
2023/03/17 06:32:09;;;;;;;6.28;2.95;;;;;;;6.13;100.00;100721.09;5112023;28;20035;-70
2023/03/17 06:34:34;;;;;;;4.20;3.00;;;;;;;6.21;100.00;100717.06;5110613;28;20027;-70
2023/03/17 06:36:59;;;;;;;4.72;2.92;;;;;;;6.32;100.00;100711.84;5112345;28;20124;-70
2023/03/17 06:39:25;;;;;;;4.55;2.95;;;;;;;6.45;100.00;100731.09;5113211;28;20536;-70
2023/03/17 06:41:51;;;;;;;4.07;3.00;;;;;;;6.54;100.00;100737.50;5116144;28;20434;-70
2023/03/17 06:44:16;;;;;;;3.58;3.00;;;;;;;6.64;100.00;100708.56;5116258;28;20024;-70
2023/03/17 06:46:41;;;;;;;7.10;3.38;;;;;;;6.70;100.00;100723.94;5115709;28;20059;-70
2023/03/17 06:49:08;;;;;;;6.57;3.35;;;;;;;6.78;100.00;100734.78;5116086;28;20070;-70
2023/03/17 06:51:36;;;;;;;6.47;2.88;;;;;;;6.83;100.00;100742.38;5115455;28;20047;-70
2023/03/17 06:54:02;;;;;;;8.30;2.90;;;;;;;6.86;100.00;100740.31;5115786;28;20081;-70
2023/03/17 06:56:27;;;;;;;12.85;3.38;;;;;;;6.88;100.00;100745.50;5115527;28;20039;-70
2023/03/17 06:58:52;;;;;;;5.75;3.28;;;;;;;6.89;100.00;100745.38;5114574;28;20118;-70
2023/03/17 07:01:18;;;;;;;7.75;3.40;;;;;;;6.93;100.00;100746.00;5115581;28;20038;-70
2023/03/17 07:03:44;;;;;;;5.95;2.95;;;;;;;6.96;100.00;100739.66;5113734;28;20408;-70
2023/03/17 07:06:09;;;;;;;5.55;3.53;;;;;;;7.00;100.00;100739.28;5115528;28;20474;-70
2023/03/17 07:08:35;;;;;;;9.63;3.25;;;;;;;7.03;100.00;100736.41;5114998;28;20031;-70
2023/03/17 07:11:02;;;;;;;6.47;3.28;;;;;;;7.06;100.00;100730.88;5115624;28;20027;-70
2023/03/17 07:13:28;;;;;;;7.75;3.35;;;;;;;7.10;100.00;100733.28;5114733;28;20036;-70
2023/03/17 07:15:54;;;;;;;5.63;3.30;;;;;;;7.14;100.00;100727.63;5115286;28;20031;-70
2023/03/17 07:18:19;;;;;;;17.23;3.60;;;;;;;7.17;100.00;100719.44;5115300;28;20036;-70
2023/03/17 07:20:45;;;;;;;6.57;3.35;;;;;;;7.23;100.00;100721.59;5114502;28;20384;-69
2023/03/17 07:23:21;;;;;;;5.07;3.10;;;;;;;7.32;100.00;100725.34;5115200;28;20085;-70
2023/03/17 07:25:47;;;;;;;8.32;2.92;;;;;;;7.41;100.00;100716.66;5114318;28;20031;-70
2023/03/17 07:28:13;;;;;;;9.18;3.50;;;;;;;7.52;100.00;100715.81;5114760;28;20043;-70
2023/03/17 07:30:42;;;;;;;6.13;3.67;;;;;;;7.62;100.00;100709.81;5111748;28;20106;-70
2023/03/17 07:33:08;;;;;;;7.30;3.80;;;;;;;7.72;100.00;100726.63;5114945;28;20111;-71
2023/03/17 07:35:34;;;;;;;6.82;3.40;;;;;;;7.82;100.00;100766.47;5112353;28;20130;-72
2023/03/17 07:37:59;;;;;;;5.63;3.55;;;;;;;7.92;100.00;100778.84;5089048;28;20041;-71
2023/03/17 07:40:25;;;;;;;4.50;3.50;;;;;;;7.97;100.00;100756.44;5112393;28;20119;-72
2023/03/17 07:42:50;;;;;;;7.72;3.75;;;;;;;8.02;100.00;100762.22;5111934;28;20042;-72
2023/03/17 07:45:16;;;;;;;5.88;3.50;;;;;;;8.03;100.00;100753.28;5091448;28;20036;-72
2023/03/17 07:47:41;;;;;;;7.97;4.00;;;;;;;8.06;100.00;100748.59;5090965;28;20038;-71
2023/03/17 07:50:08;;;;;;;5.13;3.20;;;;;;;8.03;100.00;100745.34;5090535;28;20028;-73
2023/03/17 07:52:34;;;;;;;9.73;3.80;;;;;;;7.94;100.00;100742.47;5090417;28;20035;-72
2023/03/17 07:54:59;;;;;;;8.32;3.80;;;;;;;7.84;100.00;100743.34;5090049;28;20395;-71
2023/03/17 07:57:25;;;;;;;7.50;3.92;;;;;;;7.75;100.00;100737.81;5091508;28;20032;-71
2023/03/17 07:59:51;;;;;;;8.85;3.67;;;;;;;7.71;100.00;100727.59;5089627;28;20438;-70
2023/03/17 08:02:18;;;;;;;8.85;3.60;;;;;;;7.80;100.00;100739.25;5091077;28;20151;-72
2023/03/17 08:04:44;;;;;;;9.98;3.90;;;;;;;8.06;100.00;100740.63;5091081;28;20047;-71
2023/03/17 08:07:11;;;;;;;8.55;4.90;;;;;;;8.38;100.00;100731.84;5091275;28;20093;-72
2023/03/17 08:09:37;;;;;;;14.02;5.22;;;;;;;8.70;100.00;100723.00;5090494;28;20036;-70
2023/03/17 08:12:05;;;;;;;9.18;4.18;;;;;;;9.14;100.00;100721.03;5090872;28;20111;-70
2023/03/17 08:14:31;;;;;;;6.70;4.00;;;;;;;9.69;100.00;100730.47;5090913;28;20090;-71
2023/03/17 08:16:56;;;;;;;5.78;3.70;;;;;;;10.02;100.00;100720.47;5090561;28;20476;-71
2023/03/17 08:19:23;;;;;;;6.38;3.60;;;;;;;10.36;100.00;100728.03;5091021;28;20032;-71
2023/03/17 08:21:48;;;;;;;10.50;3.80;;;;;;;10.59;100.00;100731.25;5098176;28;20031;-71
2023/03/17 08:24:14;;;;;;;7.88;4.35;;;;;;;10.71;100.00;100740.75;5107175;28;20119;-71
2023/03/17 08:26:39;;;;;;;10.07;4.18;;;;;;;10.76;100.00;100738.53;5112697;28;20078;-70
2023/03/17 08:29:05;;;;;;;7.82;3.97;;;;;;;10.84;100.00;100748.44;5113980;28;20472;-71
2023/03/17 08:31:32;;;;;;;9.23;3.90;;;;;;;10.82;100.00;100747.75;5112753;28;20038;-71
2023/03/17 08:33:57;;;;;;;7.78;3.70;;;;;;;10.85;100.00;100747.47;5113257;28;20420;-71
2023/03/17 08:36:23;;;;;;;6.80;3.75;;;;;;;11.17;100.00;100750.75;5112685;28;20074;-71
2023/03/17 08:38:49;;;;;;;7.15;3.80;;;;;;;11.47;100.00;100755.81;5113234;28;20036;-71
2023/03/17 08:41:18;;;;;;;8.18;4.25;;;;;;;11.72;100.00;100760.59;5113807;28;20455;-71
2023/03/17 08:43:44;;;;;;;6.13;4.18;;;;;;;12.09;96.46;100749.03;5112059;28;20472;-72
2023/03/17 08:46:15;;;;;;;7.60;3.85;;;;;;;12.57;94.98;100750.50;5113572;28;20034;-72
2023/03/17 08:48:42;;;;;;;11.82;4.18;;;;;;;13.08;89.80;100742.69;5113293;28;20031;-72
2023/03/17 08:51:08;;;;;;;9.05;3.88;;;;;;;13.57;82.88;100744.81;5113610;28;20456;-72
2023/03/17 08:53:34;;;;;;;8.38;4.28;;;;;;;13.81;75.58;100751.22;5113441;28;20442;-71
2023/03/17 08:56:00;;;;;;;8.25;4.32;;;;;;;13.99;76.75;100748.41;5111749;28;20081;-71
2023/03/17 08:58:27;;;;;;;12.43;4.47;;;;;;;14.13;71.97;100742.44;5113220;28;20028;-71
2023/03/17 09:00:52;;;;;;;11.30;4.97;;;;;;;14.50;72.20;100746.50;5112679;28;20019;-71
2023/03/17 09:03:20;;;;;;;10.48;4.28;;;;;;;14.92;65.86;100740.13;5111160;28;20035;-71
2023/03/17 09:05:46;;;;;;;8.50;4.40;;;;;;;14.97;64.66;100751.19;5112780;28;20023;-71
2023/03/17 09:08:12;;;;;;;7.53;4.30;;;;;;;15.76;64.32;100753.09;5112111;28;20036;-71
2023/03/17 09:10:38;;;;;;;5.65;3.80;;;;;;;16.81;59.08;100749.03;5113231;28;20038;-71
2023/03/17 09:13:04;;;;;;;8.07;4.07;;;;;;;18.20;54.05;100764.59;5111841;28;20049;-71
2023/03/17 09:15:31;;;;;;;7.57;4.50;;;;;;;18.93;49.97;100772.53;5112876;28;20392;-70
2023/03/17 09:17:56;;;;;;;9.55;4.40;;;;;;;19.08;49.56;100768.88;5111403;28;20035;-71
2023/03/17 09:20:22;;;;;;;8.48;4.18;;;;;;;19.72;48.82;100768.63;5113065;28;20107;-70
2023/03/17 09:22:48;;;;;;;10.27;4.55;;;;;;;20.08;46.89;100774.81;5112440;28;20043;-71
2023/03/17 09:25:14;;;;;;;13.27;4.15;;;;;;;21.40;43.75;100782.34;5113099;28;20509;-71
2023/03/17 09:27:40;;;;;;;6.90;4.25;;;;;;;21.38;43.42;100781.69;5113027;28;20052;-71
2023/03/17 09:30:08;;;;;;;8.02;4.43;;;;;;;21.45;43.20;100777.97;5112364;28;20035;-71
2023/03/17 09:32:33;;;;;;;9.80;4.60;;;;;;;21.86;41.05;100775.94;5112697;28;20040;-71
2023/03/17 09:34:59;;;;;;;11.80;4.20;;;;;;;21.36;43.63;100787.31;5112481;28;20479;-72
2023/03/17 09:37:25;;;;;;;12.23;4.95;;;;;;;22.15;40.32;100781.84;5112909;28;20118;-71
2023/03/17 09:39:50;;;;;;;12.35;4.45;;;;;;;21.37;43.34;100783.59;5112418;28;20023;-71
2023/03/17 09:42:25;;;;;;;9.93;4.38;;;;;;;21.29;43.47;100787.34;5112460;28;20027;-71
2023/03/17 09:45:11;;;;;;;10.13;4.07;;;;;;;21.37;41.41;100791.69;5112617;28;20031;-72
2023/03/17 09:48:18;;;;;;;8.18;4.10;;;;;;;19.59;45.09;100787.44;5112917;28;20020;-71
2023/03/17 09:51:07;;;;;;;6.55;4.30;;;;;;;18.35;48.43;100791.47;5112718;28;20027;-71
2023/03/17 09:53:40;;;;;;;9.45;4.72;;;;;;;16.94;53.50;100796.81;5112531;27;20447;-72
2023/03/17 09:56:12;;;;;;;10.20;4.50;;;;;;;15.88;58.17;100801.84;5112382;28;20490;-71
2023/03/17 09:58:50;;;;;;;7.18;4.45;;;;;;;15.27;63.46;100810.41;5110951;28;20028;-73
2023/03/17 10:01:16;;;;;;;8.50;4.57;;;;;;;14.63;71.46;100812.97;5111587;28;20032;-72
2023/03/17 10:03:42;;;;;;;9.10;4.35;;;;;;;14.48;73.74;100834.19;5112545;28;20081;-72
2023/03/17 10:06:23;;;;;;;8.40;4.50;;;;;;;14.43;78.16;100834.66;5112175;28;20447;-71
2023/03/17 10:08:56;;;;;;;8.15;3.95;;;;;;;15.18;72.42;100830.19;5111981;28;20057;-72
2023/03/17 10:11:37;;;;;;;10.20;4.15;;;;;;;15.81;67.46;100827.72;5112558;28;20034;-71
2023/03/17 10:14:23;;;;;;;8.48;4.07;;;;;;;16.38;65.42;100824.75;5112842;28;20063;-72
2023/03/17 10:17:08;;;;;;;8.68;4.05;;;;;;;17.56;56.60;100819.88;5115586;28;20043;-72
2023/03/17 10:19:41;;;;;;;10.07;4.20;;;;;;;17.38;57.97;100822.09;5116432;28;20059;-71
2023/03/17 10:22:29;;;;;;;8.18;4.30;;;;;;;16.82;59.09;100831.31;5115847;28;20059;-72
2023/03/17 10:25:01;;;;;;;8.02;4.18;;;;;;;16.52;61.37;100825.81;5116024;28;20096;-72
2023/03/17 10:27:33;;;;;;;6.15;4.32;;;;;;;16.22;60.10;100822.97;5116110;28;20079;-71
2023/03/17 10:29:58;;;;;;;6.60;4.03;;;;;;;15.96;64.03;100812.56;5116201;28;20059;-71
2023/03/17 10:32:26;;;;;;;12.77;4.30;;;;;;;15.68;68.59;100815.66;5116379;28;20467;-72
2023/03/17 10:34:51;;;;;;;10.00;4.55;;;;;;;15.44;72.27;100818.44;5115814;28;20483;-73
2023/03/17 10:37:20;;;;;;;8.35;4.10;;;;;;;15.35;75.95;100817.59;5116408;28;20064;-72
2023/03/17 10:39:51;;;;;;;6.88;4.18;;;;;;;15.34;71.38;100802.53;5116384;28;20024;-72
2023/03/17 10:42:28;;;;;;;6.28;4.20;;;;;;;15.48;74.29;100809.00;5115817;28;20028;-72
2023/03/17 10:45:06;;;;;;;8.95;4.43;;;;;;;16.11;67.23;100807.28;5115848;28;20039;-72
2023/03/17 10:47:37;;;;;;;11.15;4.18;;;;;;;16.65;65.96;100803.75;5116328;28;20104;-72
2023/03/17 10:50:27;;;;;;;9.43;4.25;;;;;;;16.68;69.01;100799.88;5116103;28;20032;-73
2023/03/17 10:53:17;;;;;;;10.93;4.90;;;;;;;16.90;66.03;100796.34;5116094;28;20043;-72
2023/03/17 10:55:48;;;;;;;8.82;4.82;;;;;;;17.11;63.98;100805.56;5114961;28;20034;-72
2023/03/17 10:58:18;;;;;;;7.93;4.65;;;;;;;17.15;65.76;100796.09;5115538;28;20239;-72
2023/03/17 11:01:02;;;;;;;11.07;4.50;;;;;;;16.98;64.87;100798.13;5115465;28;20039;-72
2023/03/17 11:03:33;;;;;;;7.50;4.47;;;;;;;16.67;66.79;100796.31;5115724;28;20058;-71
2023/03/17 11:06:03;;;;;;;6.43;4.60;;;;;;;16.33;71.46;100799.44;5115088;28;20106;-72
2023/03/17 11:08:47;;;;;;;7.85;4.38;;;;;;;15.94;69.57;100795.78;5115713;28;20059;-72
2023/03/17 11:11:41;;;;;;;10.60;4.60;;;;;;;15.47;75.07;100793.94;5115198;28;20038;-72
2023/03/17 11:14:15;;;;;;;10.82;4.70;;;;;;;15.21;78.10;100791.50;5114965;28;20055;-72
2023/03/17 11:17:02;;;;;;;7.55;4.72;;;;;;;14.86;79.79;100793.56;5115130;28;20460;-72
2023/03/17 11:20:12;;;;;;;20.92;4.53;;;;;;;14.62;86.05;100790.69;5114482;28;20023;-71
2023/03/17 11:22:40;;;;;;;9.48;4.45;;;;;;;14.53;86.29;100793.53;5059952;28;20067;-71
2023/03/17 11:25:14;;;;;;;7.03;4.40;;;;;;;14.52;87.66;100786.47;5114184;28;20383;-72
2023/03/17 11:27:50;;;;;;;11.40;4.72;;;;;;;14.55;85.50;100776.28;5114966;28;20057;-71